Time;durP1;ratioP1;P1;durP2;ratioP2;P2;SDS_P1;SDS_P2;PMS_P1;PMS_P2;Temp;Humidity;BMP_temperature;BMP_pressure;BME280_temperature;BME280_humidity;BME280_pressure;Samples;Min_cycle;Max_cycle;Signal;HPM_P1;HPM_P2
2023/10/17 00:01:13;;;;;;;1.75;0.50;;;5.50;99.90;;;;;;4926537;29;20165;-94
2023/10/17 00:03:38;;;;;;;2.25;0.50;;;5.60;99.90;;;;;;4929148;29;20091;-91
2023/10/17 00:06:06;;;;;;;1.83;0.50;;;5.60;99.90;;;;;;4930294;29;20052;-93
2023/10/17 00:08:35;;;;;;;1.48;0.60;;;5.60;99.90;;;;;;4912222;29;20032;-94
2023/10/17 00:11:17;;;;;;;2.10;0.70;;;5.70;99.90;;;;;;4929805;29;20039;-91
2023/10/17 00:13:59;;;;;;;2.08;0.60;;;5.70;99.90;;;;;;4927969;29;20035;-89
2023/10/17 00:16:30;;;;;;;2.25;0.57;;;5.70;99.90;;;;;;4912865;29;20035;-88
2023/10/17 00:18:57;;;;;;;1.85;0.50;;;5.60;99.90;;;;;;4934320;29;20052;-87
2023/10/17 00:21:23;;;;;;;2.33;0.40;;;5.70;99.90;;;;;;4927398;29;20028;-87
2023/10/17 00:23:52;;;;;;;1.60;0.40;;;5.80;99.90;;;;;;4896952;29;20028;-91
2023/10/17 00:26:19;;;;;;;1.58;0.50;;;5.80;99.90;;;;;;4934500;29;20112;-95
2023/10/17 00:28:52;;;;;;;1.40;0.50;;;5.70;99.90;;;;;;4935530;29;20464;-92
2023/10/17 00:31:22;;;;;;;2.33;0.50;;;5.80;99.90;;;;;;4929910;29;20082;-93
2023/10/17 00:33:57;;;;;;;1.30;0.40;;;5.80;99.90;;;;;;4927561;29;20058;-95
2023/10/17 00:36:27;;;;;;;1.58;0.40;;;5.90;99.90;;;;;;4912566;29;20058;-94
2023/10/17 00:39:17;;;;;;;1.75;0.57;;;5.90;99.90;;;;;;4912824;29;20039;-85
2023/10/17 00:44:44;;;;;;;1.13;0.40;;;6.00;99.90;;;;;;4903322;29;20044;-94
2023/10/17 00:47:22;;;;;;;1.00;0.40;;;5.90;99.90;;;;;;4926842;29;20067;-93
2023/10/17 00:49:49;;;;;;;1.27;0.43;;;6.10;99.90;;;;;;4928599;29;20046;-95
2023/10/17 00:52:24;;;;;;;1.70;0.50;;;6.10;99.90;;;;;;4928394;29;20423;-95
2023/10/17 00:54:53;;;;;;;3.10;0.50;;;6.00;99.90;;;;;;4929394;29;20294;-91
2023/10/17 00:57:20;;;;;;;1.53;0.43;;;6.00;99.90;;;;;;4928517;29;20031;-91
2023/10/17 00:59:53;;;;;;;2.13;0.47;;;6.00;99.90;;;;;;4896594;29;20073;-94
2023/10/17 01:02:23;;;;;;;2.00;0.50;;;6.10;99.90;;;;;;4898898;29;20031;-94
2023/10/17 01:04:50;;;;;;;2.05;0.52;;;6.10;99.90;;;;;;4930802;29;20064;-95
2023/10/17 01:07:31;;;;;;;1.52;0.50;;;6.10;99.90;;;;;;4932907;29;20548;-89
2023/10/17 01:10:13;;;;;;;1.65;0.50;;;6.10;99.90;;;;;;4930884;29;20032;-95
2023/10/17 01:12:53;;;;;;;1.30;0.43;;;6.20;99.90;;;;;;4933416;29;20095;-94
2023/10/17 01:15:28;;;;;;;1.98;0.50;;;6.10;99.90;;;;;;4913727;29;20032;-90
2023/10/17 01:18:05;;;;;;;1.60;0.50;;;6.10;99.90;;;;;;4928294;29;20492;-93
2023/10/17 01:20:32;;;;;;;1.13;0.47;;;6.10;99.90;;;;;;4930342;29;20027;-94
2023/10/17 01:23:03;;;;;;;0.93;0.40;;;6.10;99.90;;;;;;4929496;29;20468;-94
2023/10/17 01:25:38;;;;;;;1.20;0.40;;;6.10;99.90;;;;;;4931228;29;20502;-94
2023/10/17 01:28:06;;;;;;;1.17;0.40;;;6.10;99.90;;;;;;4897088;29;20130;-90
2023/10/17 01:30:32;;;;;;;1.10;0.40;;;6.20;99.90;;;;;;4913604;29;20510;-94
2023/10/17 01:32:59;;;;;;;1.45;0.50;;;6.10;99.90;;;;;;4928354;29;20111;-95
2023/10/17 01:35:24;;;;;;;1.15;0.50;;;6.10;99.90;;;;;;4931256;29;20031;-95
2023/10/17 01:37:52;;;;;;;2.67;0.60;;;6.20;99.90;;;;;;4916778;29;20104;-90
2023/10/17 01:40:27;;;;;;;1.58;0.57;;;6.20;99.90;;;;;;4917059;29;20031;-86
2023/10/17 01:42:54;;;;;;;1.45;0.65;;;6.20;99.90;;;;;;4916428;29;20028;-95
2023/10/17 01:45:37;;;;;;;1.42;0.50;;;6.20;99.90;;;;;;4931537;29;20028;-95
2023/10/17 01:48:04;;;;;;;2.78;0.60;;;6.20;99.90;;;;;;4897439;29;20376;-94
2023/10/17 01:50:30;;;;;;;2.47;0.50;;;6.30;99.90;;;;;;4917082;29;20107;-94
2023/10/17 01:52:59;;;;;;;2.00;0.43;;;6.30;99.90;;;;;;4916566;29;20122;-95
2023/10/17 01:55:27;;;;;;;2.42;0.50;;;6.30;99.90;;;;;;4931008;29;20066;-95
2023/10/17 01:57:57;;;;;;;3.28;0.60;;;6.30;99.90;;;;;;4933630;29;20066;-94
2023/10/17 02:00:42;;;;;;;1.40;0.50;;;6.30;99.90;;;;;;4921325;29;20083;-95
2023/10/17 02:03:12;;;;;;;1.65;0.50;;;6.30;99.90;;;;;;4932499;29;20531;-95
2023/10/17 02:05:38;;;;;;;1.83;0.65;;;6.30;99.90;;;;;;4932669;29;20036;-96
2023/10/17 02:08:05;;;;;;;1.75;0.50;;;6.30;99.90;;;;;;4936099;29;20496;-93
2023/10/17 02:10:31;;;;;;;1.80;0.60;;;6.30;99.90;;;;;;4917603;29;20319;-96
2023/10/17 02:12:57;;;;;;;1.42;0.50;;;6.30;99.90;;;;;;4933697;29;20032;-94
2023/10/17 02:15:23;;;;;;;2.25;0.50;;;6.20;99.90;;;;;;4935221;29;20468;-94
2023/10/17 02:17:53;;;;;;;2.97;0.52;;;6.30;99.90;;;;;;4933440;29;20047;-94
2023/10/17 02:22:55;;;;;;;1.15;0.50;;;6.30;99.90;;;;;;4935036;29;20046;-95
2023/10/17 02:25:21;;;;;;;1.30;0.52;;;6.30;99.90;;;;;;4930458;29;20046;-95
2023/10/17 02:27:50;;;;;;;1.77;0.50;;;6.30;99.90;;;;;;4935829;29;20496;-94
2023/10/17 02:30:20;;;;;;;1.27;0.50;;;6.30;99.90;;;;;;4919915;29;20036;-95
2023/10/17 02:32:53;;;;;;;4.50;0.70;;;6.30;99.90;;;;;;4918413;29;20409;-94
2023/10/17 02:35:28;;;;;;;1.65;0.60;;;6.30;99.90;;;;;;4918704;29;20183;-94
2023/10/17 02:37:57;;;;;;;1.65;0.70;;;6.20;99.90;;;;;;4934749;29;20036;-93
2023/10/17 02:40:24;;;;;;;2.13;1.05;;;6.20;99.90;;;;;;4934542;29;20103;-93
2023/10/17 02:42:50;;;;;;;1.75;0.57;;;6.30;99.90;;;;;;4928196;29;20448;-93
2023/10/17 02:45:25;;;;;;;2.67;0.60;;;6.30;99.90;;;;;;4934844;29;20032;-95
2023/10/17 02:48:23;;;;;;;2.13;0.75;;;6.30;99.90;;;;;;4918422;29;20384;-95
2023/10/17 02:51:00;;;;;;;1.85;0.50;;;6.30;99.90;;;;;;4931899;29;20039;-90
2023/10/17 02:53:30;;;;;;;2.03;0.50;;;6.40;99.90;;;;;;4928868;29;20047;-92
2023/10/17 02:55:58;;;;;;;1.67;0.50;;;6.30;99.90;;;;;;4934540;29;20040;-95
2023/10/17 02:58:23;;;;;;;1.45;0.50;;;6.30;99.90;;;;;;4933106;29;20043;-94
2023/10/17 03:00:52;;;;;;;1.63;0.50;;;6.30;99.90;;;;;;4939474;29;20024;-93
2023/10/17 03:03:19;;;;;;;2.03;0.60;;;6.30;99.90;;;;;;4918250;29;20122;-89
2023/10/17 03:05:50;;;;;;;1.20;0.50;;;6.30;99.90;;;;;;4916302;29;20026;-95
2023/10/17 03:08:20;;;;;;;2.53;0.60;;;6.40;99.90;;;;;;4933434;29;20042;-95
2023/10/17 03:10:47;;;;;;;3.22;0.70;;;6.30;99.90;;;;;;4931804;29;20415;-92
2023/10/17 03:13:39;;;;;;;1.30;0.60;;;6.30;99.90;;;;;;4931531;29;20449;-94
2023/10/17 03:16:23;;;;;;;1.95;0.52;;;6.30;99.90;;;;;;4917295;29;20034;-94
2023/10/17 03:18:50;;;;;;;2.83;0.60;;;6.30;99.90;;;;;;4912026;29;20047;-95
2023/10/17 03:21:29;;;;;;;1.70;0.60;;;6.30;99.90;;;;;;4931430;29;20024;-92
2023/10/17 03:23:59;;;;;;;1.77;0.50;;;6.30;99.90;;;;;;4930339;29;20028;-89
2023/10/17 03:26:26;;;;;;;1.52;0.50;;;6.30;99.90;;;;;;4930544;29;20119;-93
2023/10/17 03:28:51;;;;;;;1.58;0.57;;;6.30;99.90;;;;;;4933393;29;20508;-87
2023/10/17 03:31:21;;;;;;;2.42;0.60;;;6.40;99.90;;;;;;4935059;29;20038;-94
2023/10/17 03:33:50;;;;;;;1.40;0.50;;;6.40;99.90;;;;;;4916479;29;20031;-94
2023/10/17 03:36:41;;;;;;;2.00;0.63;;;6.30;99.90;;;;;;4935184;29;20030;-95
2023/10/17 03:39:27;;;;;;;;;;;6.30;99.90;;;;;;4931110;29;20126;-87
2023/10/17 03:41:56;;;;;;;0.82;0.40;;;6.30;99.90;;;;;;4935445;29;20414;-91
2023/10/17 03:44:29;;;;;;;2.17;0.60;;;6.30;99.90;;;;;;4932120;29;20039;-93
2023/10/17 03:46:59;;;;;;;0.80;0.30;;;6.30;99.90;;;;;;4932344;29;20036;-93
2023/10/17 03:49:36;;;;;;;1.23;0.50;;;6.40;99.90;;;;;;4930766;29;20038;-93
2023/10/17 03:52:07;;;;;;;1.50;0.60;;;6.40;99.90;;;;;;4929388;29;20065;-95
2023/10/17 03:54:38;;;;;;;2.35;0.70;;;6.40;99.90;;;;;;4931708;29;20059;-94
2023/10/17 03:57:14;;;;;;;1.45;0.52;;;6.40;99.90;;;;;;4930964;29;20067;-94
2023/10/17 03:59:40;;;;;;;1.40;0.60;;;6.40;99.90;;;;;;4931894;29;20055;-95
2023/10/17 04:02:12;;;;;;;1.60;0.50;;;6.40;99.90;;;;;;4931162;29;20039;-95
2023/10/17 04:04:49;;;;;;;2.67;0.55;;;6.40;99.90;;;;;;4931309;29;20091;-91
2023/10/17 04:07:16;;;;;;;1.85;0.70;;;6.40;99.90;;;;;;4912871;29;20024;-91
2023/10/17 04:12:38;;;;;;;2.88;0.70;;;6.40;99.90;;;;;;4932014;29;20041;-93
2023/10/17 04:15:09;;;;;;;2.35;0.60;;;6.40;99.90;;;;;;4928136;29;20067;-93
2023/10/17 04:17:36;;;;;;;1.40;0.50;;;6.40;99.90;;;;;;4930502;29;20502;-93
2023/10/17 04:20:12;;;;;;;4.10;1.13;;;6.40;99.90;;;;;;4931028;29;20388;-93
2023/10/17 04:22:39;;;;;;;1.02;0.50;;;6.40;99.90;;;;;;4931939;29;20031;-89
2023/10/17 04:25:33;;;;;;;2.05;0.60;;;6.40;99.90;;;;;;4913330;29;20032;-93
2023/10/17 04:27:59;;;;;;;1.58;0.70;;;6.40;99.90;;;;;;4931433;29;20064;-93
2023/10/17 04:30:46;;;;;;;1.77;0.80;;;6.40;99.90;;;;;;4928966;29;20028;-94
2023/10/17 04:33:19;;;;;;;2.45;0.80;;;6.40;99.90;;;;;;4931002;29;20134;-93
2023/10/17 04:35:53;;;;;;;1.70;0.60;;;6.50;99.90;;;;;;4893557;29;20031;-95
2023/10/17 04:38:19;;;;;;;1.67;0.60;;;6.50;99.90;;;;;;4931440;29;20046;-94
2023/10/17 04:40:58;;;;;;;1.52;0.60;;;6.50;99.90;;;;;;4931523;29;20087;-93
2023/10/17 04:46:08;;;;;;;2.08;0.50;;;6.40;99.90;;;;;;4931608;29;20389;-94
2023/10/17 04:48:40;;;;;;;1.95;0.50;;;6.50;99.90;;;;;;4931244;29;20035;-93
2023/10/17 04:51:19;;;;;;;1.65;0.52;;;6.40;99.90;;;;;;4930797;29;20023;-94
2023/10/17 04:53:48;;;;;;;1.55;0.50;;;6.40;99.90;;;;;;4931636;29;20040;-94
2023/10/17 04:56:22;;;;;;;1.88;0.50;;;6.50;99.90;;;;;;4915378;29;20463;-95
2023/10/17 04:58:53;;;;;;;2.75;0.80;;;6.40;99.90;;;;;;4931278;29;20572;-93
2023/10/17 05:01:36;;;;;;;1.95;0.60;;;6.50;99.90;;;;;;4931354;29;20063;-94
2023/10/17 06:17:48;;;;;;;3.20;1.20;;;6.20;99.90;;;;;;4933867;29;20088;-93
2023/10/17 06:20:16;;;;;;;2.58;1.10;;;6.20;99.90;;;;;;4917817;29;20046;-93
2023/10/17 06:28:34;;;;;;;3.28;1.70;;;6.20;99.90;;;;;;4929902;29;20054;-92
2023/10/17 06:31:34;;;;;;;4.28;1.83;;;6.20;99.90;;;;;;4932264;29;20471;-95
2023/10/17 06:34:01;;;;;;;3.03;1.73;;;6.20;99.90;;;;;;4930773;29;20064;-87
2023/10/17 06:36:28;;;;;;;3.33;1.95;;;6.20;99.90;;;;;;4906831;29;20035;-93
2023/10/17 06:38:54;;;;;;;2.78;1.30;;;6.20;99.90;;;;;;4933557;29;20495;-92
2023/10/17 06:41:38;;;;;;;3.08;1.70;;;6.20;99.90;;;;;;4932863;29;20086;-93
2023/10/17 06:44:09;;;;;;;3.45;1.27;;;6.20;99.90;;;;;;4927439;29;20028;-91
2023/10/17 06:46:48;;;;;;;3.17;1.05;;;6.20;99.90;;;;;;4930322;29;20047;-90
2023/10/17 06:54:58;;;;;;;2.70;1.38;;;6.20;99.90;;;;;;4931633;29;20131;-89
2023/10/17 06:57:24;;;;;;;3.40;1.60;;;6.20;99.90;;;;;;4932201;29;20106;-91
2023/10/17 06:59:52;;;;;;;3.58;1.90;;;6.20;99.90;;;;;;4932770;29;20036;-93
2023/10/17 07:02:18;;;;;;;2.60;1.30;;;6.20;99.90;;;;;;4932805;29;20028;-90
2023/10/17 07:04:49;;;;;;;2.78;1.40;;;6.20;99.90;;;;;;4933264;29;20404;-92
2023/10/17 07:07:18;;;;;;;2.40;1.10;;;6.20;99.90;;;;;;4932559;29;20437;-93
2023/10/17 07:09:52;;;;;;;2.97;1.20;;;6.20;99.90;;;;;;4932842;29;20023;-92
2023/10/17 07:12:19;;;;;;;2.88;1.40;;;6.20;99.90;;;;;;4932985;29;20035;-94
2023/10/17 07:14:51;;;;;;;3.38;1.35;;;6.20;99.90;;;;;;4931839;29;20036;-93
2023/10/17 07:17:25;;;;;;;3.10;1.15;;;6.20;99.90;;;;;;4931506;29;20137;-93
2023/10/17 07:20:01;;;;;;;4.00;2.00;;;6.30;99.90;;;;;;4932170;29;20052;-89
2023/10/17 07:22:35;;;;;;;2.10;1.05;;;6.30;99.90;;;;;;4932409;29;20027;-91
2023/10/17 07:25:02;;;;;;;3.60;1.38;;;6.40;99.90;;;;;;4932115;29;20477;-89
2023/10/17 07:27:33;;;;;;;5.00;1.77;;;6.40;99.90;;;;;;4931744;29;20559;-93
2023/10/17 07:30:27;;;;;;;4.07;2.17;;;6.50;99.90;;;;;;4930095;29;20036;-94
2023/10/17 07:32:56;;;;;;;2.60;1.40;;;6.50;99.90;;;;;;4931108;29;20070;-92
2023/10/17 07:35:24;;;;;;;3.45;1.67;;;6.60;99.90;;;;;;4931682;29;20027;-90
2023/10/17 07:37:56;;;;;;;4.07;2.10;;;6.60;99.90;;;;;;4930511;29;20365;-93
2023/10/17 07:43:07;;;;;;;4.38;2.70;;;6.90;99.90;;;;;;4931724;29;20258;-91
2023/10/17 07:45:39;;;;;;;5.63;2.50;;;7.00;99.90;;;;;;4933060;29;20033;-93
2023/10/17 07:48:24;;;;;;;5.22;3.05;;;7.10;99.90;;;;;;4934839;29;20485;-91
2023/10/17 07:50:51;;;;;;;5.72;3.50;;;7.20;99.90;;;;;;4933485;29;20511;-87
2023/10/17 07:53:21;;;;;;;4.85;3.40;;;7.30;99.90;;;;;;4932030;29;20024;-96
2023/10/17 07:56:04;;;;;;;6.28;4.22;;;7.40;99.90;;;;;;4932634;29;20043;-96
2023/10/17 07:58:41;;;;;;;9.70;4.10;;;7.60;99.90;;;;;;4930991;29;20036;-95
2023/10/17 08:01:07;;;;;;;6.15;4.05;;;7.60;99.90;;;;;;4914570;29;20039;-93
2023/10/17 08:03:40;;;;;;;8.55;5.35;;;7.80;99.90;;;;;;4932191;29;20038;-95
2023/10/17 08:06:08;;;;;;;5.68;3.95;;;7.90;99.90;;;;;;4914094;29;20555;-95
2023/10/17 08:08:42;;;;;;;7.40;5.00;;;8.00;99.90;;;;;;4930603;29;20028;-93
2023/10/17 08:11:27;;;;;;;8.20;4.70;;;8.00;99.90;;;;;;4931000;29;20107;-95
2023/10/17 08:13:55;;;;;;;8.65;5.93;;;8.20;99.90;;;;;;4931864;29;20127;-93
2023/10/17 08:16:24;;;;;;;7.22;4.85;;;8.30;99.90;;;;;;4932055;29;20028;-89
2023/10/17 08:18:58;;;;;;;6.70;3.80;;;8.40;99.90;;;;;;4929599;29;20517;-95
2023/10/17 08:21:33;;;;;;;7.35;3.90;;;8.50;99.90;;;;;;4926358;29;20052;-94
2023/10/17 08:24:00;;;;;;;6.65;4.18;;;8.60;99.90;;;;;;4911461;29;20027;-94
2023/10/17 08:26:31;;;;;;;7.07;5.20;;;8.80;99.90;;;;;;4927174;29;20023;-93
2023/10/17 08:28:57;;;;;;;6.93;4.85;;;8.80;99.90;;;;;;4925448;29;20079;-93
2023/10/17 08:31:23;;;;;;;8.70;5.47;;;8.90;99.90;;;;;;4929857;29;20035;-93
2023/10/17 08:39:59;;;;;;;8.63;5.45;;;9.10;99.90;;;;;;4931192;29;20090;-94
2023/10/17 08:42:14;;;;;;;7.00;4.30;;;9.20;99.90;;;;;;4923565;29;20071;-94
2023/10/17 08:44:42;;;;;;;;;;;9.40;99.90;;;;;;4929219;29;20266;-93
2023/10/17 08:47:10;;;;;;;5.78;3.85;;;9.40;99.90;;;;;;4914979;29;20335;-94
2023/10/17 08:49:38;;;;;;;6.10;3.85;;;9.40;99.90;;;;;;4928083;29;20404;-92
2023/10/17 08:52:04;;;;;;;10.95;5.97;;;9.60;99.90;;;;;;4911760;29;20040;-93
2023/10/17 08:54:29;;;;;;;6.68;4.78;;;9.50;99.90;;;;;;4924999;29;20095;-91
2023/10/17 08:57:03;;;;;;;11.95;6.03;;;9.70;99.90;;;;;;4927244;29;20031;-93
2023/10/17 09:04:47;;;;;;;7.65;4.78;;;9.80;99.90;;;;;;4926827;29;20039;-87
2023/10/17 09:07:31;;;;;;;9.30;5.18;;;10.00;99.90;;;;;;4925607;29;20032;-88
2023/10/17 09:10:03;;;;;;;9.02;5.40;;;10.10;99.90;;;;;;4924386;29;20039;-92
2023/10/17 09:12:29;;;;;;;7.65;4.60;;;10.00;99.90;;;;;;4929496;29;20122;-91
2023/10/17 09:14:59;;;;;;;7.78;5.38;;;10.10;99.90;;;;;;4929892;29;20048;-92
2023/10/17 09:19:51;;;;;;;8.60;4.90;;;10.30;99.90;;;;;;4927110;29;20040;-92
2023/10/17 09:22:40;;;;;;;9.07;5.80;;;10.30;99.90;;;;;;4940421;29;20028;-94
2023/10/17 09:25:26;;;;;;;12.25;5.82;;;10.40;99.90;;;;;;4922868;29;20556;-90
2023/10/17 09:27:56;;;;;;;9.50;6.15;;;10.40;99.90;;;;;;4930410;29;20154;-88
2023/10/17 09:30:23;;;;;;;12.63;7.22;;;10.50;99.90;;;;;;4927868;29;20039;-92
2023/10/17 09:32:49;;;;;;;9.73;6.03;;;10.40;99.90;;;;;;4930022;29;20059;-90
2023/10/17 09:35:16;;;;;;;9.93;6.47;;;10.50;99.90;;;;;;4931636;29;20064;-91
2023/10/17 09:37:50;;;;;;;7.90;5.22;;;10.50;99.90;;;;;;4913294;29;20071;-91
2023/10/17 09:40:30;;;;;;;9.98;5.70;;;10.70;99.90;;;;;;4931723;29;20043;-92
2023/10/17 09:42:56;;;;;;;6.40;4.30;;;10.80;99.90;;;;;;4929952;29;20485;-92
2023/10/17 09:45:22;;;;;;;4.57;3.35;;;10.80;99.90;;;;;;4931844;29;20035;-92
2023/10/17 09:47:58;;;;;;;7.95;5.10;;;10.80;99.90;;;;;;4931412;29;20039;-93
2023/10/17 09:50:24;;;;;;;7.57;4.18;;;10.90;99.90;;;;;;4932709;29;20114;-90
2023/10/17 09:52:54;;;;;;;5.22;3.10;;;11.00;99.90;;;;;;4930993;29;20070;-92
2023/10/17 09:55:23;;;;;;;4.63;3.13;;;10.90;99.90;;;;;;4915900;29;20043;-92
2023/10/17 09:58:03;;;;;;;7.68;3.83;;;11.00;99.90;;;;;;4931068;29;20028;-92
2023/10/17 10:00:50;;;;;;;5.95;3.90;;;11.00;99.90;;;;;;4913733;29;20020;-91
2023/10/17 10:03:17;;;;;;;6.50;3.40;;;10.80;99.90;;;;;;4929232;29;20036;-92
2023/10/17 10:05:42;;;;;;;5.32;3.95;;;10.90;99.90;;;;;;4913294;29;20042;-92
2023/10/17 10:08:32;;;;;;;6.70;4.43;;;11.10;99.90;;;;;;4929609;29;20020;-93
2023/10/17 10:10:59;;;;;;;;;;;11.20;99.90;;;;;;4929511;29;20540;-93
2023/10/17 10:13:25;;;;;;;5.70;3.38;;;11.20;99.90;;;;;;4930743;29;19933;-93
2023/10/17 10:16:04;;;;;;;5.97;2.55;;;11.30;99.90;;;;;;4931755;29;20476;-93
2023/10/17 10:18:35;;;;;;;4.88;2.47;;;11.60;99.90;;;;;;4932532;29;20138;-93
2023/10/17 10:21:02;;;;;;;4.43;2.13;;;11.70;99.90;;;;;;4931178;29;20035;-93
2023/10/17 10:23:41;;;;;;;5.60;3.25;;;11.70;99.90;;;;;;4927599;29;20042;-91
2023/10/17 10:26:19;;;;;;;4.05;2.17;;;11.70;99.90;;;;;;4932144;29;20024;-91
2023/10/17 10:28:51;;;;;;;5.85;2.60;;;11.80;99.90;;;;;;4900486;29;20472;-92
2023/10/17 10:31:25;;;;;;;6.22;3.70;;;11.40;99.90;;;;;;4912468;29;20048;-91
2023/10/17 10:33:53;;;;;;;4.78;3.42;;;11.40;99.90;;;;;;4906936;29;20028;-93
2023/10/17 10:36:25;;;;;;;5.72;2.78;;;11.50;99.90;;;;;;4879464;29;20481;-95
2023/10/17 10:38:53;;;;;;;4.97;2.42;;;11.70;99.90;;;;;;4907414;29;20036;-90
2023/10/17 10:41:22;;;;;;;4.43;2.45;;;11.90;99.90;;;;;;4906611;29;20031;-93
2023/10/17 10:43:48;;;;;;;4.53;2.53;;;11.90;99.90;;;;;;4911854;29;20047;-93
2023/10/17 10:46:15;;;;;;;4.00;1.88;;;11.90;99.90;;;;;;4910986;29;20497;-93
2023/10/17 10:48:51;;;;;;;4.05;2.47;;;12.00;99.90;;;;;;4911291;29;20341;-95
2023/10/17 10:51:17;;;;;;;6.30;2.38;;;12.20;99.90;;;;;;4899357;29;20616;-93
2023/10/17 10:53:44;;;;;;;3.28;2.17;;;12.30;99.90;;;;;;4896461;29;20028;-94
2023/10/17 10:56:11;;;;;;;6.85;2.42;;;12.10;99.90;;;;;;4895100;29;20060;-93
2023/10/17 10:58:44;;;;;;;4.18;1.70;;;12.10;99.90;;;;;;4910208;29;20095;-94
2023/10/17 11:01:10;;;;;;;3.15;0.85;;;12.20;99.90;;;;;;4910614;29;20067;-94
2023/10/17 11:03:41;;;;;;;2.38;1.13;;;12.30;99.90;;;;;;4891110;29;20064;-92
2023/10/17 11:06:09;;;;;;;2.80;1.60;;;12.30;99.90;;;;;;4908387;29;20044;-95
2023/10/17 11:08:43;;;;;;;3.20;1.85;;;12.20;99.90;;;;;;4909673;29;20036;-93
2023/10/17 11:11:10;;;;;;;2.70;1.10;;;12.20;99.90;;;;;;4913554;29;20390;-96
2023/10/17 11:13:44;;;;;;;4.75;1.20;;;12.60;99.90;;;;;;4894226;29;20036;-94
2023/10/17 11:16:11;;;;;;;2.75;1.17;;;12.50;99.90;;;;;;4911234;29;20115;-90
2023/10/17 11:18:44;;;;;;;3.78;1.52;;;12.50;99.90;;;;;;4893940;29;20043;-95
2023/10/17 11:21:10;;;;;;;2.05;1.10;;;12.40;99.90;;;;;;4912686;29;20043;-94
2023/10/17 11:23:46;;;;;;;2.60;0.82;;;12.50;99.90;;;;;;4909673;29;20044;-94
2023/10/17 11:26:13;;;;;;;4.57;0.93;;;12.70;99.90;;;;;;4911502;29;20860;-94
2023/10/17 11:28:42;;;;;;;2.08;1.10;;;13.00;99.90;;;;;;4930641;29;20066;-96
2023/10/17 11:31:22;;;;;;;4.03;1.48;;;12.70;99.90;;;;;;4913382;29;20027;-95
2023/10/17 11:34:12;;;;;;;3.45;1.73;;;12.80;99.90;;;;;;4912068;29;20047;-92
2023/10/17 11:36:50;;;;;;;3.95;1.60;;;12.70;99.90;;;;;;4930584;29;20126;-94
2023/10/17 11:39:16;;;;;;;2.00;0.80;;;12.60;99.90;;;;;;4925695;29;20123;-93
2023/10/17 11:41:53;;;;;;;1.50;0.80;;;12.90;99.90;;;;;;4930681;29;20171;-95
2023/10/17 11:44:23;;;;;;;3.08;0.73;;;13.00;99.90;;;;;;4926729;29;20118;-94
2023/10/17 11:46:58;;;;;;;;;;;13.10;99.90;;;;;;4924103;29;20030;-93
2023/10/17 11:49:27;;;;;;;2.47;1.10;;;13.00;99.90;;;;;;4909557;29;19924;-96
2023/10/17 11:52:00;;;;;;;2.72;1.00;;;12.90;99.90;;;;;;4930315;29;20135;-91
2023/10/17 11:54:26;;;;;;;2.92;0.90;;;12.80;99.90;;;;;;4931905;29;20032;-90
2023/10/17 11:56:54;;;;;;;1.88;0.70;;;12.80;99.90;;;;;;4927852;29;20042;-92
2023/10/17 11:59:20;;;;;;;2.45;0.60;;;12.90;99.90;;;;;;4923178;29;20043;-96
2023/10/17 12:01:47;;;;;;;4.40;0.55;;;13.00;99.90;;;;;;4930884;29;20046;-93
2023/10/17 12:04:16;;;;;;;2.78;0.60;;;13.20;99.90;;;;;;4925976;29;20028;-90
2023/10/17 12:06:44;;;;;;;1.90;0.60;;;13.10;99.90;;;;;;4929750;29;20175;-93
2023/10/17 12:11:49;;;;;;;2.50;0.50;;;12.90;99.90;;;;;;4930970;29;20473;-94
2023/10/17 12:14:19;;;;;;;1.75;0.47;;;13.00;99.90;;;;;;4913665;29;20493;-92
2023/10/17 12:16:55;;;;;;;2.05;0.50;;;12.90;99.90;;;;;;4913513;29;20106;-96
2023/10/17 12:19:22;;;;;;;1.83;0.50;;;13.00;99.90;;;;;;4928307;29;20128;-92
2023/10/17 12:21:48;;;;;;;1.02;0.45;;;12.90;99.90;;;;;;4909542;29;20047;-94
2023/10/17 12:24:24;;;;;;;0.80;0.40;;;12.80;99.90;;;;;;4925473;29;20032;-94
2023/10/17 12:26:50;;;;;;;1.77;0.40;;;13.00;99.90;;;;;;4928612;29;20605;-92
2023/10/17 12:29:19;;;;;;;2.65;0.50;;;13.00;99.90;;;;;;4927073;29;20040;-96
2023/10/17 12:31:46;;;;;;;1.20;0.30;;;12.90;99.90;;;;;;4937692;29;20063;-94
2023/10/17 12:34:18;;;;;;;0.98;0.30;;;13.10;99.90;;;;;;4927817;29;20043;-94
2023/10/17 12:36:46;;;;;;;1.73;0.32;;;13.20;99.90;;;;;;4929638;29;20028;-95
2023/10/17 12:39:14;;;;;;;2.40;0.50;;;13.10;99.90;;;;;;4923347;29;20115;-93
2023/10/17 12:41:39;;;;;;;1.15;0.40;;;13.20;99.90;;;;;;4927284;29;20388;-93
2023/10/17 12:44:05;;;;;;;1.90;0.50;;;13.30;99.90;;;;;;4936664;29;20027;-94
2023/10/17 12:46:31;;;;;;;1.63;0.50;;;13.00;99.90;;;;;;4926550;29;20028;-93
2023/10/17 12:48:57;;;;;;;1.52;0.40;;;12.90;99.90;;;;;;4937587;29;20031;-96
2023/10/17 12:51:23;;;;;;;1.00;0.40;;;13.00;99.90;;;;;;4929873;29;20028;-90
2023/10/17 12:53:49;;;;;;;0.90;0.40;;;13.00;99.90;;;;;;4927644;29;20043;-93
2023/10/17 12:56:17;;;;;;;1.20;0.40;;;13.00;99.90;;;;;;4910648;29;20110;-92
2023/10/17 12:58:43;;;;;;;2.30;0.35;;;12.90;99.90;;;;;;4928851;29;20042;-92
2023/10/17 13:01:12;;;;;;;1.90;0.40;;;13.00;99.90;;;;;;4928118;29;20437;-95
2023/10/17 13:03:38;;;;;;;1.70;0.47;;;13.00;99.90;;;;;;4925024;29;20047;-94
2023/10/17 13:06:09;;;;;;;1.58;0.43;;;13.00;99.90;;;;;;4924676;29;20023;-92
2023/10/17 13:08:35;;;;;;;0.77;0.38;;;13.00;99.90;;;;;;4927746;29;20044;-93
2023/10/17 13:11:04;;;;;;;1.13;0.40;;;13.00;99.90;;;;;;4924808;29;20027;-96
2023/10/17 13:13:30;;;;;;;0.80;0.30;;;13.10;99.90;;;;;;4929233;29;20043;-94
2023/10/17 13:15:59;;;;;;;2.22;0.40;;;13.00;99.90;;;;;;4925300;29;20031;-92
2023/10/17 13:18:28;;;;;;;2.22;0.30;;;13.20;99.90;;;;;;4925937;29;20385;-93
2023/10/17 13:21:02;;;;;;;1.55;0.40;;;13.20;99.90;;;;;;4926875;29;20749;-94
2023/10/17 13:23:28;;;;;;;1.48;0.50;;;13.20;99.90;;;;;;4928479;29;20035;-93
2023/10/17 13:25:54;;;;;;;1.77;0.60;;;13.00;99.90;;;;;;4924767;29;20400;-94
2023/10/17 13:28:20;;;;;;;2.03;0.40;;;12.90;99.90;;;;;;4910206;29;20076;-90
2023/10/17 13:30:45;;;;;;;2.45;0.40;;;13.10;99.90;;;;;;4929243;29;20095;-93
2023/10/17 13:33:11;;;;;;;1.92;0.40;;;13.00;99.90;;;;;;4924746;29;20052;-96
2023/10/17 13:35:40;;;;;;;2.63;0.52;;;13.00;99.90;;;;;;4928829;29;20032;-93
2023/10/17 13:38:06;;;;;;;1.40;0.45;;;12.90;99.90;;;;;;4928752;29;20031;-93
2023/10/17 13:40:32;;;;;;;1.33;0.50;;;12.70;99.90;;;;;;4911667;29;20046;-93
2023/10/17 13:43:04;;;;;;;1.00;0.30;;;13.00;99.90;;;;;;4928885;29;20107;-94
2023/10/17 13:45:30;;;;;;;1.83;0.60;;;13.00;99.90;;;;;;4913183;29;20034;-94
2023/10/17 13:47:55;;;;;;;1.63;0.40;;;12.90;99.90;;;;;;4926494;29;20500;-93
2023/10/17 13:50:22;;;;;;;1.00;0.40;;;13.00;99.90;;;;;;4909769;29;20047;-95
2023/10/17 13:52:48;;;;;;;1.63;0.40;;;13.10;99.90;;;;;;4928390;29;20489;-92
2023/10/17 13:55:27;;;;;;;2.15;0.63;;;12.90;99.90;;;;;;4924342;29;20419;-91
2023/10/17 13:58:01;;;;;;;1.90;0.50;;;12.80;99.90;;;;;;4925514;29;20024;-95
2023/10/17 14:00:36;;;;;;;2.70;0.50;;;12.90;99.90;;;;;;4925858;29;20032;-92
2023/10/17 14:03:06;;;;;;;2.25;0.50;;;12.90;99.90;;;;;;4926699;29;20024;-93
2023/10/17 14:05:31;;;;;;;1.38;0.52;;;12.70;99.90;;;;;;4929327;29;20027;-89
2023/10/17 14:07:57;;;;;;;2.00;0.50;;;12.70;99.90;;;;;;4926673;29;20434;-96
2023/10/17 14:10:24;;;;;;;2.10;0.60;;;12.60;99.90;;;;;;4912651;29;20429;-94
2023/10/17 14:12:51;;;;;;;1.85;0.40;;;12.60;99.90;;;;;;4931093;29;20024;-91
2023/10/17 14:15:17;;;;;;;1.70;0.55;;;12.50;99.90;;;;;;4913273;29;20034;-92
2023/10/17 14:17:45;;;;;;;2.05;0.47;;;12.50;99.90;;;;;;4931097;29;20032;-91
2023/10/17 14:20:17;;;;;;;2.33;0.60;;;12.60;99.90;;;;;;4917375;29;20512;-94
2023/10/17 14:23:08;;;;;;;1.25;0.50;;;12.50;99.90;;;;;;4929289;29;20042;-95
2023/10/17 14:28:16;;;;;;;0.80;0.30;;;12.40;99.90;;;;;;4926156;29;20110;-94
2023/10/17 14:30:42;;;;;;;1.10;0.40;;;12.50;99.90;;;;;;4929461;29;20032;-92
2023/10/17 14:33:09;;;;;;;1.40;0.40;;;12.40;99.90;;;;;;4911870;29;20039;-92
2023/10/17 14:35:37;;;;;;;2.13;0.40;;;12.30;99.90;;;;;;4909838;29;20495;-92
2023/10/17 14:38:03;;;;;;;1.75;0.40;;;12.40;99.90;;;;;;4931697;29;20547;-94
2023/10/17 14:40:30;;;;;;;1.35;0.50;;;12.30;99.90;;;;;;4915215;29;20027;-93
2023/10/17 14:42:56;;;;;;;1.52;0.30;;;12.30;99.90;;;;;;4911434;29;20059;-92
2023/10/17 14:45:30;;;;;;;1.15;0.30;;;12.30;99.90;;;;;;4927348;29;20078;-93
2023/10/17 14:47:58;;;;;;;1.65;0.30;;;12.30;99.90;;;;;;4929632;29;20023;-93
2023/10/17 14:50:26;;;;;;;0.90;0.30;;;12.40;99.90;;;;;;4930805;29;20036;-91
2023/10/17 14:52:52;;;;;;;1.20;0.30;;;12.30;99.90;;;;;;4928435;29;20044;-93
2023/10/17 14:55:23;;;;;;;1.73;0.45;;;12.20;99.90;;;;;;4927836;29;20027;-92
2023/10/17 14:57:49;;;;;;;1.38;0.40;;;12.20;99.90;;;;;;4927553;29;20075;-91
2023/10/17 15:00:16;;;;;;;1.30;0.50;;;12.10;99.90;;;;;;4910844;29;20047;-92
2023/10/17 15:02:45;;;;;;;1.55;0.40;;;12.10;99.90;;;;;;4912197;29;20043;-92
2023/10/17 15:05:13;;;;;;;1.75;0.50;;;12.10;99.90;;;;;;4912817;29;20044;-95
2023/10/17 15:07:40;;;;;;;1.40;0.40;;;12.10;99.90;;;;;;4922738;29;20032;-94
2023/10/17 15:10:13;;;;;;;1.55;0.50;;;12.00;99.90;;;;;;4927260;29;20031;-91